createdAt,value
2017-08-16T00:04:45.724Z,15.63
2017-08-16T00:09:48.961Z,12.53
2017-08-16T00:14:52.123Z,14.80
2017-08-16T00:19:55.320Z,12.73
2017-08-16T00:24:59.273Z,10.20
2017-08-16T00:30:02.481Z,10.03
2017-08-16T00:35:05.678Z,13.30
2017-08-16T00:40:08.869Z,15.20
2017-08-16T00:45:12.823Z,11.40
2017-08-16T00:50:16.102Z,12.80
2017-08-16T00:55:19.289Z,15.80
2017-08-16T01:00:23.245Z,12.77
2017-08-16T01:05:26.438Z,12.53
2017-08-16T01:10:30.385Z,10.13
2017-08-16T01:15:33.566Z,9.70
2017-08-16T01:20:37.525Z,9.87
2017-08-16T01:25:40.732Z,10.50
2017-08-16T01:30:43.901Z,8.10
2017-08-16T01:35:47.911Z,11.97
2017-08-16T01:40:51.878Z,14.20
2017-08-16T01:45:55.081Z,19.30
2017-08-16T01:50:58.297Z,12.67
2017-08-16T01:56:01.485Z,15.50
2017-08-16T02:01:04.674Z,12.30
2017-08-16T02:06:08.618Z,11.43
2017-08-16T02:11:11.810Z,10.30
2017-08-16T02:16:15.766Z,8.73
2017-08-16T02:21:18.950Z,11.80
2017-08-16T02:26:22.118Z,11.37
2017-08-16T02:31:25.300Z,11.20
2017-08-16T02:36:28.470Z,10.20
2017-08-16T02:41:31.657Z,13.83
2017-08-16T02:46:35.610Z,9.70
2017-08-16T02:51:38.839Z,11.87
2017-08-16T02:56:42.001Z,10.87
2017-08-16T03:01:45.953Z,7.47
2017-08-16T03:06:49.108Z,10.10
2017-08-16T03:11:52.265Z,12.23
2017-08-16T03:16:55.440Z,8.20
2017-08-16T03:21:58.610Z,8.47
2017-08-16T03:27:01.835Z,12.40
2017-08-16T03:32:05.021Z,11.30
2017-08-16T03:37:08.182Z,6.33
2017-08-16T03:42:12.140Z,8.50
2017-08-16T03:47:15.295Z,16.07
2017-08-16T03:52:18.454Z,7.43
2017-08-16T03:57:21.638Z,9.87
2017-08-16T04:02:24.807Z,10.93
2017-08-16T04:07:28.049Z,12.07
2017-08-16T04:12:31.969Z,9.80
2017-08-16T04:17:35.133Z,10.60
2017-08-16T04:22:38.301Z,15.47
2017-08-16T04:27:41.478Z,10.13
2017-08-16T04:32:45.417Z,13.10
2017-08-16T04:37:48.630Z,12.73
2017-08-16T04:42:51.834Z,12.07
2017-08-16T04:47:55.010Z,11.33
2017-08-16T04:52:59.059Z,12.37
2017-08-16T04:58:02.237Z,9.33
2017-08-16T05:03:05.410Z,11.10
2017-08-16T05:08:08.585Z,12.23
2017-08-16T05:13:11.724Z,14.07
2017-08-16T05:18:14.897Z,16.60
2017-08-16T05:23:18.057Z,15.03
2017-08-16T05:28:21.239Z,12.53
2017-08-16T05:33:24.402Z,12.60
2017-08-16T05:38:28.343Z,18.10
2017-08-16T05:43:31.539Z,11.87
2017-08-16T05:48:35.475Z,12.43
2017-08-16T05:53:38.655Z,8.73
2017-08-16T05:58:42.749Z,13.30
2017-08-16T06:03:45.938Z,9.23
2017-08-16T06:08:49.121Z,9.63
2017-08-16T06:13:52.293Z,9.10
2017-08-16T06:18:55.478Z,13.90
2017-08-16T06:23:58.649Z,13.67
2017-08-16T06:29:01.822Z,11.10
2017-08-16T06:34:05.001Z,13.50
2017-08-16T06:39:08.167Z,15.80
2017-08-16T06:44:11.358Z,13.60
2017-08-16T06:49:14.533Z,11.63
2017-08-16T06:54:17.722Z,19.30
2017-08-16T06:59:20.980Z,14.27
2017-08-16T07:04:24.905Z,13.50
2017-08-16T07:09:28.079Z,12.80
2017-08-16T07:14:31.261Z,11.37
2017-08-16T07:19:34.450Z,14.03
2017-08-16T07:24:37.656Z,8.73
2017-08-16T07:29:40.864Z,11.10
2017-08-16T07:34:44.037Z,11.43
2017-08-16T07:39:48.010Z,18.30
2017-08-16T07:44:51.217Z,9.87
2017-08-16T07:49:54.397Z,13.40
2017-08-16T07:54:57.581Z,11.47
2017-08-16T08:00:01.574Z,14.70
2017-08-16T08:05:04.824Z,18.27
2017-08-16T08:10:08.770Z,18.60
2017-08-16T08:15:11.970Z,17.83
2017-08-16T08:20:15.147Z,14.20
2017-08-16T08:25:19.098Z,14.57
2017-08-16T08:30:22.268Z,20.10
2017-08-16T08:35:26.213Z,17.33
2017-08-16T08:40:29.391Z,25.60
2017-08-16T08:45:32.608Z,16.63
2017-08-16T08:50:35.825Z,17.30
2017-08-16T08:55:39.789Z,20.83
2017-08-16T09:00:42.969Z,20.47
2017-08-16T09:05:46.163Z,22.80
2017-08-16T09:10:50.106Z,18.70
2017-08-16T09:15:53.300Z,27.10
2017-08-16T09:20:57.604Z,22.03
2017-08-16T09:26:00.804Z,18.77
2017-08-16T09:31:03.985Z,17.50
2017-08-16T09:36:07.236Z,21.00
2017-08-16T09:41:10.425Z,20.13
2017-08-16T09:46:13.645Z,17.57
2017-08-16T09:51:16.831Z,22.83
2017-08-16T09:56:20.292Z,18.27
2017-08-16T10:01:24.275Z,21.23
2017-08-16T10:06:27.457Z,19.57
2017-08-16T10:11:30.690Z,20.10
2017-08-16T10:16:33.908Z,20.30
2017-08-16T10:21:37.210Z,65.90
2017-08-16T10:26:40.386Z,18.00
2017-08-16T10:31:43.596Z,17.17
2017-08-16T10:36:46.807Z,67.83
2017-08-16T10:41:50.031Z,31.90
2017-08-16T10:46:53.248Z,34.97
2017-08-16T10:51:56.459Z,50.10
2017-08-16T10:56:59.632Z,34.73
2017-08-16T11:02:02.834Z,37.73
2017-08-16T11:07:06.049Z,21.93
2017-08-16T11:12:09.248Z,16.20
2017-08-16T11:17:12.498Z,19.60
2017-08-16T11:22:16.486Z,25.73
2017-08-16T11:27:19.698Z,16.07
2017-08-16T11:32:22.902Z,19.63
2017-08-16T11:37:26.130Z,12.30
2017-08-16T11:42:29.318Z,9.77
2017-08-16T11:47:32.502Z,8.90
2017-08-16T11:52:35.694Z,11.03
2017-08-16T11:57:38.930Z,9.30
2017-08-16T12:02:42.111Z,10.47
2017-08-16T12:07:45.322Z,12.07
2017-08-16T12:12:48.511Z,11.60
2017-08-16T12:17:51.708Z,10.17
2017-08-16T12:22:55.658Z,9.17
2017-08-16T12:27:58.845Z,9.37
2017-08-16T12:33:02.056Z,9.97
2017-08-16T12:38:05.992Z,10.77
2017-08-16T12:43:09.562Z,9.70
2017-08-16T12:48:12.733Z,10.40
2017-08-16T12:53:15.923Z,7.83
2017-08-16T12:58:23.167Z,8.57
2017-08-16T13:03:26.376Z,9.53
2017-08-16T13:08:29.561Z,8.70
2017-08-16T13:13:32.786Z,7.57
2017-08-16T13:18:35.977Z,6.87
2017-08-16T13:23:39.294Z,8.33
2017-08-16T13:28:42.506Z,9.10
2017-08-16T13:33:45.789Z,5.07
2017-08-16T13:38:48.981Z,10.83
2017-08-16T13:43:52.159Z,6.83
2017-08-16T13:48:56.254Z,6.60
2017-08-16T13:53:59.474Z,5.23
2017-08-16T13:59:02.659Z,6.60
2017-08-16T14:04:05.862Z,6.77
2017-08-16T14:09:09.052Z,5.17
2017-08-16T14:14:12.262Z,10.17
2017-08-16T14:19:15.446Z,8.17
2017-08-16T14:24:18.633Z,6.03
2017-08-16T14:29:22.681Z,5.60
2017-08-16T14:34:26.628Z,6.97
2017-08-16T14:39:29.821Z,6.73
2017-08-16T14:44:33.922Z,11.10
2017-08-16T14:49:37.845Z,7.03
2017-08-16T14:54:41.778Z,4.67
2017-08-16T14:59:44.976Z,5.97
2017-08-16T15:04:48.934Z,5.90
2017-08-16T15:09:52.143Z,4.83
2017-08-16T15:14:55.413Z,6.03
2017-08-16T15:19:59.342Z,4.70
2017-08-16T15:25:03.327Z,6.00
2017-08-16T15:30:06.538Z,7.27
2017-08-16T15:35:09.769Z,5.70
2017-08-16T15:40:14.061Z,8.23
2017-08-16T15:45:17.305Z,6.70
2017-08-16T15:50:21.271Z,6.73
2017-08-16T15:55:24.756Z,6.97
2017-08-16T16:00:28.859Z,6.20
2017-08-16T16:05:33.011Z,7.13
2017-08-16T16:10:36.974Z,7.70
2017-08-16T16:15:40.196Z,8.13
2017-08-16T16:20:43.403Z,5.67
2017-08-16T16:25:46.621Z,10.77
2017-08-16T16:30:49.811Z,8.23
2017-08-16T16:35:53.037Z,9.03
2017-08-16T16:40:56.233Z,6.40
2017-08-16T16:45:59.417Z,9.20
2017-08-16T16:51:02.613Z,9.70
2017-08-16T16:56:05.822Z,11.20
2017-08-16T17:01:09.006Z,11.60
2017-08-16T17:06:12.949Z,9.00
2017-08-16T17:11:16.124Z,7.43
2017-08-16T17:16:19.334Z,8.20
2017-08-16T17:21:23.278Z,8.27
2017-08-16T17:26:26.605Z,10.37
2017-08-16T17:31:29.827Z,8.40
2017-08-16T17:36:33.057Z,10.23
2017-08-16T17:41:36.256Z,9.60
2017-08-16T17:46:41.106Z,15.90
2017-08-16T17:51:44.352Z,8.90
2017-08-16T17:56:48.396Z,8.37
2017-08-16T18:01:51.628Z,8.50
2017-08-16T18:06:54.859Z,17.13
2017-08-16T18:11:58.033Z,12.40
2017-08-16T18:17:01.246Z,9.57
2017-08-16T18:22:04.465Z,13.73
2017-08-16T18:27:07.665Z,16.20
2017-08-16T18:32:10.881Z,11.17
2017-08-16T18:37:14.096Z,14.20
2017-08-16T18:42:17.300Z,11.70
2017-08-16T18:47:20.530Z,15.17
2017-08-16T18:52:23.719Z,13.20
2017-08-16T18:57:26.926Z,13.50
2017-08-16T19:02:30.141Z,15.93
2017-08-16T19:07:33.382Z,12.80
2017-08-16T19:12:37.362Z,13.30
2017-08-16T19:17:40.553Z,17.00
2017-08-16T19:22:43.758Z,15.10
2017-08-16T19:27:46.977Z,12.97
2017-08-16T19:32:50.184Z,13.43
2017-08-16T19:37:53.377Z,16.97
2017-08-16T19:42:56.573Z,13.93
2017-08-16T19:47:59.730Z,16.53
2017-08-16T19:53:03.712Z,19.93
2017-08-16T19:58:06.936Z,16.77
2017-08-16T20:03:10.122Z,15.90
2017-08-16T20:08:13.325Z,17.90
2017-08-16T20:13:16.546Z,15.20
2017-08-16T20:18:19.827Z,17.13
2017-08-16T20:23:23.052Z,21.13
2017-08-16T20:28:26.267Z,20.37
2017-08-16T20:33:29.459Z,18.27
2017-08-16T20:38:32.669Z,18.50
2017-08-16T20:43:36.059Z,17.40
2017-08-16T20:48:39.989Z,22.53
2017-08-16T20:53:43.207Z,18.93
2017-08-16T20:58:46.413Z,18.97
2017-08-16T21:03:49.643Z,19.67
2017-08-16T21:08:52.879Z,16.70
2017-08-16T21:13:56.094Z,19.37
2017-08-16T21:18:59.272Z,15.93
2017-08-16T21:24:02.488Z,20.27
2017-08-16T21:29:05.656Z,18.60
2017-08-16T21:34:08.840Z,19.17
2017-08-16T21:39:12.049Z,16.47
2017-08-16T21:44:15.248Z,20.70
2017-08-16T21:49:19.275Z,15.33
2017-08-16T21:54:22.455Z,18.20
2017-08-16T21:59:25.634Z,17.40
2017-08-16T22:04:28.848Z,15.30
2017-08-16T22:09:32.081Z,15.63
2017-08-16T22:14:35.279Z,19.23
2017-08-16T22:19:38.480Z,19.77
2017-08-16T22:24:41.669Z,17.60
2017-08-16T22:29:44.881Z,20.67
2017-08-16T22:34:48.088Z,18.97
2017-08-16T22:39:51.285Z,22.57
2017-08-16T22:44:54.481Z,18.90
2017-08-16T22:49:57.671Z,18.50
2017-08-16T22:55:00.860Z,17.67
2017-08-16T23:00:04.796Z,14.90
2017-08-16T23:05:08.014Z,21.27
2017-08-16T23:10:11.198Z,15.90
2017-08-16T23:15:14.351Z,19.77
2017-08-16T23:20:17.807Z,18.33
2017-08-16T23:25:21.819Z,21.70
2017-08-16T23:30:24.993Z,16.80
2017-08-16T23:35:28.201Z,13.77
2017-08-16T23:40:31.471Z,18.97
2017-08-16T23:45:35.447Z,21.33
2017-08-16T23:50:38.652Z,14.77
2017-08-16T23:55:41.842Z,20.40
